createdAt,value
2023-04-08T00:01:35.766Z,0
2023-04-08T00:03:15.469Z,0
2023-04-08T00:04:55.246Z,0
2023-04-08T00:06:35.034Z,0
2023-04-08T00:08:14.876Z,0
2023-04-08T00:09:54.582Z,0
2023-04-08T00:11:34.310Z,0
2023-04-08T00:13:14.082Z,0
2023-04-08T00:14:54.036Z,0
2023-04-08T00:16:34.160Z,0
2023-04-08T00:18:13.434Z,0
2023-04-08T00:19:53.202Z,0
2023-04-08T00:21:32.920Z,0
2023-04-08T00:23:12.692Z,0
2023-04-08T00:24:52.493Z,0
2023-04-08T00:26:32.222Z,0
2023-04-08T00:28:11.991Z,0
2023-04-08T00:29:51.766Z,0
2023-04-08T00:31:31.510Z,0
2023-04-08T00:33:11.291Z,0
2023-04-08T00:34:51.137Z,0
2023-04-08T00:36:30.813Z,0
2023-04-08T00:38:10.591Z,0
2023-04-08T00:39:50.346Z,0
2023-04-08T00:41:30.113Z,0
2023-04-08T00:43:10.013Z,0
2023-04-08T00:44:49.651Z,0
2023-04-08T00:46:29.421Z,0
2023-04-08T00:48:09.192Z,0
2023-04-08T00:49:49.015Z,0
2023-04-08T00:51:28.732Z,0
2023-04-08T00:53:08.544Z,0
2023-04-08T00:54:48.268Z,0
2023-04-08T00:56:28.019Z,0
2023-04-08T00:58:07.798Z,0
2023-04-08T00:59:47.568Z,0
2023-04-08T01:01:27.319Z,0
2023-04-08T01:03:07.102Z,0
2023-04-08T01:04:46.866Z,0
2023-04-08T01:06:26.642Z,0
2023-04-08T01:08:06.409Z,0
2023-04-08T01:09:46.278Z,0
2023-04-08T01:11:25.929Z,0
2023-04-08T01:13:05.761Z,0
2023-04-08T01:14:45.495Z,0
2023-04-08T01:16:25.275Z,0
2023-04-08T01:18:04.998Z,0
2023-04-08T01:19:44.774Z,0
2023-04-08T01:21:24.530Z,0
2023-04-08T01:23:04.333Z,0
2023-04-08T01:24:44.088Z,0
2023-04-08T01:26:23.839Z,0
2023-04-08T01:28:03.628Z,0
2023-04-08T01:29:43.382Z,0
2023-04-08T01:31:23.134Z,0
2023-04-08T01:33:02.895Z,0
2023-04-08T01:34:42.694Z,0
2023-04-08T01:36:22.455Z,0
2023-04-08T01:38:02.208Z,0
2023-04-08T01:39:42.045Z,0
2023-04-08T01:41:21.757Z,0
2023-04-08T01:43:01.533Z,0
2023-04-08T01:44:41.286Z,0
2023-04-08T01:46:21.055Z,0
2023-04-08T01:48:00.820Z,0
2023-04-08T01:49:40.588Z,0
2023-04-08T01:51:20.383Z,0
2023-04-08T01:53:00.123Z,0
2023-04-08T01:54:39.894Z,0
2023-04-08T01:56:19.651Z,0
2023-04-08T01:57:59.431Z,0
2023-04-08T01:59:39.266Z,0
2023-04-08T02:01:18.959Z,0
2023-04-08T02:02:58.724Z,0
2023-04-08T02:04:38.513Z,0
2023-04-08T02:06:18.266Z,0
2023-04-08T02:07:58.037Z,0
2023-04-08T02:09:37.842Z,0
2023-04-08T02:11:17.561Z,0
2023-04-08T02:12:57.337Z,0
2023-04-08T02:14:37.101Z,0
2023-04-08T02:16:16.869Z,0
2023-04-08T02:17:56.631Z,0
2023-04-08T02:19:36.445Z,0
2023-04-08T02:21:16.154Z,0
2023-04-08T02:22:55.928Z,0
2023-04-08T02:24:35.704Z,0
2023-04-08T02:26:15.463Z,0
2023-04-08T02:27:55.277Z,0
2023-04-08T02:29:35.115Z,0
2023-04-08T02:31:14.759Z,0
2023-04-08T02:32:54.534Z,0
2023-04-08T02:34:34.295Z,0
2023-04-08T02:36:14.083Z,0
2023-04-08T02:37:53.830Z,0
2023-04-08T02:39:33.614Z,0
2023-04-08T02:41:13.376Z,0
2023-04-08T02:42:53.157Z,0
2023-04-08T02:44:32.907Z,0
2023-04-08T02:46:12.676Z,0
2023-04-08T02:47:52.444Z,0
2023-04-08T02:49:32.195Z,0
2023-04-08T02:51:11.962Z,0
2023-04-08T02:52:51.733Z,0
2023-04-08T02:54:31.518Z,0
2023-04-08T02:56:11.285Z,0
2023-04-08T02:57:51.044Z,0
2023-04-08T02:59:30.817Z,0
2023-04-08T03:01:10.576Z,0
2023-04-08T03:02:50.346Z,0
2023-04-08T03:04:30.118Z,0
2023-04-08T03:06:09.896Z,0
2023-04-08T03:07:49.651Z,0
2023-04-08T03:09:29.409Z,0
2023-04-08T03:11:09.164Z,0
2023-04-08T03:12:48.965Z,0
2023-04-08T03:14:28.716Z,0
2023-04-08T03:16:08.475Z,0
2023-04-08T03:17:48.258Z,0
2023-04-08T03:19:28.020Z,0
2023-04-08T03:21:07.786Z,0
2023-04-08T03:22:47.547Z,0
2023-04-08T03:24:27.310Z,0
2023-04-08T03:26:07.084Z,0
2023-04-08T03:27:46.875Z,0
2023-04-08T03:29:26.626Z,0
2023-04-08T03:31:06.381Z,0
2023-04-08T03:32:46.198Z,0
2023-04-08T03:34:25.930Z,0
2023-04-08T03:36:05.697Z,0
2023-04-08T03:37:45.456Z,0
2023-04-08T03:39:25.214Z,0
2023-04-08T03:41:04.991Z,0
2023-04-08T03:42:44.804Z,0
2023-04-08T03:44:24.523Z,0
2023-04-08T03:46:04.341Z,0
2023-04-08T03:47:44.057Z,0
2023-04-08T03:49:23.853Z,0
2023-04-08T03:51:03.641Z,0
2023-04-08T03:52:43.406Z,0
2023-04-08T03:54:23.193Z,0
2023-04-08T03:56:02.917Z,0
2023-04-08T03:57:42.672Z,0
2023-04-08T03:59:22.430Z,0
2023-04-08T04:01:02.227Z,0
2023-04-08T04:02:42.031Z,0
2023-04-08T04:04:21.743Z,0
2023-04-08T04:06:01.491Z,0
2023-04-08T04:07:41.258Z,0
2023-04-08T04:09:21.018Z,0
2023-04-08T04:11:00.808Z,0
2023-04-08T04:12:40.594Z,0
2023-04-08T04:14:20.329Z,0
2023-04-08T04:16:00.090Z,0
2023-04-08T04:17:39.881Z,0
2023-04-08T04:19:19.693Z,0
2023-04-08T04:20:59.474Z,0
2023-04-08T04:22:39.166Z,0
2023-04-08T04:24:18.931Z,0
2023-04-08T04:25:58.746Z,0
2023-04-08T04:27:38.469Z,0
2023-04-08T04:29:18.261Z,0
2023-04-08T04:30:58.000Z,0
2023-04-08T04:32:37.787Z,0
2023-04-08T04:34:17.534Z,0
2023-04-08T04:35:57.313Z,0
2023-04-08T04:37:37.078Z,0
2023-04-08T04:39:16.856Z,0
2023-04-08T04:40:56.602Z,0
2023-04-08T04:42:36.385Z,0
2023-04-08T04:44:16.133Z,0
2023-04-08T04:45:55.917Z,0
2023-04-08T04:47:35.678Z,0
2023-04-08T04:49:15.449Z,0
2023-04-08T04:50:55.199Z,0
2023-04-08T04:52:34.967Z,0.01
2023-04-08T04:54:14.744Z,0
2023-04-08T04:55:54.516Z,0
2023-04-08T04:57:34.288Z,0
2023-04-08T04:59:14.043Z,0.02
2023-04-08T05:00:53.822Z,0
2023-04-08T05:02:33.608Z,0
2023-04-08T05:04:13.353Z,0.02
2023-04-08T05:05:53.145Z,0.01
2023-04-08T05:07:32.895Z,0.03
2023-04-08T05:09:12.727Z,0.03
2023-04-08T05:10:52.562Z,0.06
2023-04-08T05:12:32.192Z,0.08
2023-04-08T05:14:11.959Z,0.08
2023-04-08T05:15:51.733Z,0.14
2023-04-08T05:17:31.548Z,0.1
2023-04-08T05:19:11.260Z,0.09
2023-04-08T05:20:51.055Z,0.07
2023-04-08T05:22:30.824Z,0.08
2023-04-08T05:24:10.574Z,0.1
2023-04-08T05:25:50.329Z,0.13
2023-04-08T05:27:30.105Z,0.13
2023-04-08T05:29:09.878Z,0.16
2023-04-08T05:30:49.641Z,0.19
2023-04-08T05:32:29.429Z,0.21
2023-04-08T05:34:09.177Z,0.25
2023-04-08T05:35:48.962Z,0.26
2023-04-08T05:37:28.725Z,0.27
2023-04-08T05:39:08.579Z,0.27
2023-04-08T05:40:48.309Z,0.32
2023-04-08T05:42:28.046Z,0.33
2023-04-08T05:44:07.805Z,0.36
2023-04-08T05:45:47.718Z,0.37
2023-04-08T05:47:27.554Z,0.38
2023-04-08T05:49:07.132Z,0.46
2023-04-08T05:50:46.888Z,0.51
2023-04-08T05:52:26.664Z,0.46
2023-04-08T05:54:06.431Z,0.46
2023-04-08T05:55:46.258Z,0.52
2023-04-08T05:57:25.974Z,0.49
2023-04-08T05:59:05.742Z,0.49
2023-04-08T06:00:45.577Z,0.5
2023-04-08T06:02:25.275Z,0.52
2023-04-08T06:04:05.052Z,0.63
2023-04-08T06:05:44.825Z,0.54
2023-04-08T06:07:24.650Z,0.52
2023-04-08T06:09:04.403Z,0.54
2023-04-08T06:10:44.122Z,0.58
2023-04-08T06:12:23.930Z,0.58
2023-04-08T06:14:03.772Z,0.61
2023-04-08T06:15:43.718Z,1.08
2023-04-08T06:17:23.205Z,0.6
2023-04-08T06:19:02.999Z,0.72
2023-04-08T06:20:42.738Z,0.89
2023-04-08T06:22:22.517Z,1.08
2023-04-08T06:24:02.299Z,1.11
2023-04-08T06:25:42.067Z,1.14
2023-04-08T06:27:21.829Z,1.14
2023-04-08T06:29:01.589Z,1.02
2023-04-08T06:30:41.380Z,0.93
2023-04-08T06:32:21.130Z,1.01
2023-04-08T06:34:00.947Z,0.97
2023-04-08T06:35:40.705Z,1.1
2023-04-08T06:37:20.457Z,1.15
2023-04-08T06:39:00.211Z,1.03
2023-04-08T06:40:39.976Z,1.11
2023-04-08T06:42:19.754Z,1.04
2023-04-08T06:43:59.519Z,1.19
2023-04-08T06:45:39.387Z,1.33
2023-04-08T06:47:19.076Z,1.76
2023-04-08T06:48:58.967Z,1.5
2023-04-08T06:50:38.603Z,1.38
2023-04-08T06:52:18.372Z,1.35
2023-04-08T06:53:58.155Z,1.33
2023-04-08T06:55:37.934Z,1.3
2023-04-08T06:57:17.688Z,1.32
2023-04-08T06:58:57.548Z,1.29
2023-04-08T07:00:37.217Z,1.26
2023-04-08T07:02:17.001Z,1.24
2023-04-08T07:03:56.778Z,1.28
2023-04-08T07:05:36.543Z,1.23
2023-04-08T07:07:16.358Z,1.24
2023-04-08T07:08:56.148Z,1.25
2023-04-08T07:10:35.864Z,1.26
2023-04-08T07:12:15.628Z,1.25
2023-04-08T07:13:55.395Z,1.22
2023-04-08T07:15:35.161Z,1.22
2023-04-08T07:17:14.974Z,1.24
2023-04-08T07:18:54.869Z,1.19
2023-04-08T07:20:34.481Z,1.22
2023-04-08T07:22:14.311Z,1.23
2023-04-08T07:23:54.095Z,1.22
2023-04-08T07:25:33.784Z,1.21
2023-04-08T07:27:13.555Z,1.19
2023-04-08T07:28:53.389Z,1.22
2023-04-08T07:30:33.095Z,1.21
2023-04-08T07:32:12.877Z,1.23
2023-04-08T07:33:52.713Z,1.21
2023-04-08T07:35:32.410Z,1.21
2023-04-08T07:37:12.211Z,1.19
2023-04-08T07:38:51.997Z,1.19
2023-04-08T07:40:31.716Z,1.2
2023-04-08T07:42:11.476Z,1.23
2023-04-08T07:43:51.263Z,1.21
2023-04-08T07:45:31.056Z,1.2
2023-04-08T07:47:10.792Z,1.21
2023-04-08T07:48:50.572Z,1.19
2023-04-08T07:50:30.331Z,1.21
2023-04-08T07:52:10.095Z,1.16
2023-04-08T07:53:49.875Z,1.19
2023-04-08T07:55:29.641Z,1.17
2023-04-08T07:57:09.417Z,1.17
2023-04-08T07:58:49.179Z,1.16
2023-04-08T08:00:28.950Z,1.17
2023-04-08T08:02:08.729Z,1.2
2023-04-08T08:03:48.497Z,1.2
2023-04-08T08:05:28.272Z,1.15
2023-04-08T08:07:08.038Z,1.17
2023-04-08T08:08:47.811Z,1.19
2023-04-08T08:10:27.587Z,1.16
2023-04-08T08:12:07.349Z,1.17
2023-04-08T08:13:47.143Z,1.16
2023-04-08T08:15:26.889Z,1.17
2023-04-08T08:17:06.647Z,1.16
2023-04-08T08:18:46.447Z,1.16
2023-04-08T08:20:26.197Z,1.15
2023-04-08T08:22:05.989Z,1.16
2023-04-08T08:23:45.737Z,1.16
2023-04-08T08:25:25.519Z,1.15
2023-04-08T08:27:05.284Z,1.16
2023-04-08T08:28:45.065Z,1.16
2023-04-08T08:30:24.847Z,1.15
2023-04-08T08:32:04.610Z,1.16
2023-04-08T08:33:44.425Z,1.13
2023-04-08T08:35:24.161Z,1.12
2023-04-08T08:37:03.897Z,1.14
2023-04-08T08:38:43.671Z,1.14
2023-04-08T08:40:23.437Z,1.15
2023-04-08T08:42:03.278Z,1.16
2023-04-08T08:43:43.092Z,1.15
2023-04-08T08:45:22.814Z,1.14
2023-04-08T08:47:02.608Z,1.15
2023-04-08T08:48:42.292Z,1.16
2023-04-08T08:50:22.063Z,1.12
2023-04-08T08:52:01.862Z,1.16
2023-04-08T08:53:41.594Z,1.13
2023-04-08T08:55:21.375Z,1.16
2023-04-08T08:57:01.148Z,1.14
2023-04-08T08:58:40.979Z,1.15
2023-04-08T09:00:20.699Z,1.11
2023-04-08T09:02:00.477Z,1.12
2023-04-08T09:03:40.310Z,1.13
2023-04-08T09:05:20.006Z,1.14
2023-04-08T09:06:59.761Z,1.14
2023-04-08T09:08:39.553Z,1.11
2023-04-08T09:10:19.312Z,1.14
2023-04-08T09:11:59.078Z,1.11
2023-04-08T09:13:38.938Z,1.14
2023-04-08T09:15:18.635Z,1.11
2023-04-08T09:16:58.396Z,1.11
2023-04-08T09:18:38.185Z,1.12
2023-04-08T09:20:17.932Z,1.15
2023-04-08T09:21:57.705Z,1.11
2023-04-08T09:23:37.521Z,1.14
2023-04-08T09:25:17.232Z,1.08
2023-04-08T09:26:57.110Z,1.09
2023-04-08T09:28:36.781Z,1.11
2023-04-08T09:30:16.606Z,1.12
2023-04-08T09:31:56.335Z,1.08
2023-04-08T09:33:36.183Z,1.13
2023-04-08T09:35:15.870Z,1.13
2023-04-08T09:36:55.633Z,1.12
2023-04-08T09:38:35.410Z,1.11
2023-04-08T09:40:15.183Z,1.09
2023-04-08T09:41:54.958Z,1.09
2023-04-08T09:43:34.716Z,1.09
2023-04-08T09:45:14.483Z,1.07
2023-04-08T09:46:54.268Z,0
2023-04-08T09:48:34.038Z,0
2023-04-08T09:50:13.804Z,0
2023-04-08T09:51:53.564Z,0
2023-04-08T09:53:33.373Z,0
2023-04-08T09:55:13.102Z,0
2023-04-08T09:56:52.986Z,0
2023-04-08T09:58:32.673Z,0
2023-04-08T10:00:12.409Z,0.1
2023-04-08T10:01:52.199Z,0.16
2023-04-08T10:03:31.965Z,0.25
2023-04-08T10:05:11.720Z,0.25
2023-04-08T10:06:51.500Z,0.21
2023-04-08T10:08:31.267Z,0.26
2023-04-08T10:10:11.044Z,0.28
2023-04-08T10:11:50.832Z,0.24
2023-04-08T10:13:30.584Z,0.27
2023-04-08T10:15:10.359Z,0.32
2023-04-08T10:16:50.179Z,0.25
2023-04-08T10:18:29.882Z,0.31
2023-04-08T10:20:09.655Z,0.26
2023-04-08T10:21:49.440Z,0.28
2023-04-08T10:23:29.231Z,0.25
2023-04-08T10:25:08.977Z,0.28
2023-04-08T10:26:48.778Z,0.31
2023-04-08T10:28:28.511Z,0.32
2023-04-08T10:30:08.283Z,0.28
2023-04-08T10:31:48.054Z,0.29
2023-04-08T10:33:27.830Z,0.33
2023-04-08T10:35:07.582Z,0.28
2023-04-08T10:36:47.371Z,0.3
2023-04-08T10:38:27.242Z,0.27
2023-04-08T10:40:06.910Z,0.28
2023-04-08T10:41:46.675Z,0.28
2023-04-08T10:43:26.442Z,0.27
2023-04-08T10:45:06.285Z,0.28
2023-04-08T10:46:46.004Z,0.31
2023-04-08T10:48:25.755Z,0.27
2023-04-08T10:50:05.555Z,0.3
2023-04-08T10:51:45.301Z,0.33
2023-04-08T10:53:25.066Z,0.32
2023-04-08T10:55:04.960Z,0.35
2023-04-08T10:56:44.612Z,0.31
2023-04-08T10:58:24.369Z,0.3
2023-04-08T11:00:04.142Z,0.28
2023-04-08T11:01:43.906Z,0.36
2023-04-08T11:03:23.708Z,0.31
2023-04-08T11:05:03.484Z,0.28
2023-04-08T11:06:43.235Z,0.27
2023-04-08T11:08:23.001Z,0.31
2023-04-08T11:10:02.761Z,0.33
2023-04-08T11:11:42.538Z,0.29
2023-04-08T11:13:22.331Z,0.31
2023-04-08T11:15:02.226Z,0.29
2023-04-08T11:16:41.873Z,0.31
2023-04-08T11:18:21.616Z,0.33
2023-04-08T11:20:01.456Z,0.29
2023-04-08T11:21:41.161Z,0.26
2023-04-08T11:23:20.931Z,0.33
2023-04-08T11:25:00.707Z,0.3
2023-04-08T11:26:40.465Z,0.3
2023-04-08T11:28:20.247Z,0.31
2023-04-08T11:30:00.008Z,0.28
2023-04-08T11:31:39.779Z,0.3
2023-04-08T11:33:19.575Z,0.28
2023-04-08T11:34:59.323Z,0.4
2023-04-08T11:36:39.089Z,0.32
2023-04-08T11:38:18.852Z,0.28
2023-04-08T11:39:58.614Z,0.3
2023-04-08T11:41:38.435Z,0.32
2023-04-08T11:43:18.169Z,0.34
2023-04-08T11:44:57.942Z,0.31
2023-04-08T11:46:37.705Z,0.27
2023-04-08T11:48:17.480Z,0.27
2023-04-08T11:49:57.369Z,0.31
2023-04-08T11:51:37.022Z,0.3
2023-04-08T11:53:16.782Z,0.26
2023-04-08T11:54:56.556Z,0.28
2023-04-08T11:56:36.335Z,0.29
2023-04-08T11:58:16.108Z,0.29
2023-04-08T11:59:55.870Z,0.29
2023-04-08T12:01:35.633Z,0.3
2023-04-08T12:03:15.566Z,0.28
2023-04-08T12:04:55.236Z,0.28
2023-04-08T12:06:34.945Z,0.31
2023-04-08T12:08:14.720Z,0.28
2023-04-08T12:09:54.489Z,0.29
2023-04-08T12:11:34.278Z,0.28
2023-04-08T12:13:14.036Z,0.28
2023-04-08T12:14:53.795Z,0.29
2023-04-08T12:16:33.566Z,0.3
2023-04-08T12:18:13.378Z,0.29
2023-04-08T12:19:53.120Z,0.3
2023-04-08T12:21:32.934Z,0.31
2023-04-08T12:23:12.653Z,0.26
2023-04-08T12:24:52.426Z,0.3
2023-04-08T12:26:32.186Z,0.24
2023-04-08T12:28:11.967Z,0.27
2023-04-08T12:29:51.750Z,0.29
2023-04-08T12:31:31.612Z,0.26
2023-04-08T12:33:11.268Z,0.27
2023-04-08T12:34:51.053Z,0.28
2023-04-08T12:36:30.828Z,0.29
2023-04-08T12:38:10.594Z,0.26
2023-04-08T12:39:50.401Z,0.28
2023-04-08T12:41:30.135Z,0.26
2023-04-08T12:43:09.931Z,0.29
2023-04-08T12:44:49.675Z,0.26
2023-04-08T12:46:29.428Z,0.28
2023-04-08T12:48:09.229Z,0.24
2023-04-08T12:49:48.983Z,0.26
2023-04-08T12:51:28.794Z,0.28
2023-04-08T12:53:08.540Z,0.29
2023-04-08T12:54:48.296Z,0.27
2023-04-08T12:56:28.061Z,0.29
2023-04-08T12:58:07.828Z,0.27
2023-04-08T12:59:47.602Z,0.27
2023-04-08T13:01:27.392Z,0.29
2023-04-08T13:03:07.143Z,0.31
2023-04-08T13:04:46.918Z,0.29
2023-04-08T13:06:26.677Z,0.27
2023-04-08T13:08:06.478Z,0.29
2023-04-08T13:09:46.219Z,0.28
2023-04-08T13:11:25.992Z,0.28
2023-04-08T13:13:05.780Z,0.29
2023-04-08T13:14:45.540Z,0.26
2023-04-08T13:16:25.325Z,0.29
2023-04-08T13:18:05.106Z,0.27
2023-04-08T13:19:44.845Z,0.24
2023-04-08T13:21:24.667Z,0.28
2023-04-08T13:23:04.390Z,0.31
2023-04-08T13:24:44.168Z,0.28
2023-04-08T13:26:23.934Z,0.28
2023-04-08T13:28:03.695Z,0.28
2023-04-08T13:29:43.623Z,0.27
2023-04-08T13:31:23.236Z,0.3
2023-04-08T13:33:03.020Z,0.28
2023-04-08T13:34:42.772Z,0.24
2023-04-08T13:36:22.544Z,0.29
2023-04-08T13:38:02.316Z,0.29
2023-04-08T13:39:42.096Z,0.27
2023-04-08T13:41:21.908Z,0.27
2023-04-08T13:43:01.618Z,0.28
2023-04-08T13:44:41.424Z,0.25
2023-04-08T13:46:21.177Z,0.29
2023-04-08T13:48:00.924Z,0.27
2023-04-08T13:49:40.714Z,0.27
2023-04-08T13:51:20.464Z,0.29
2023-04-08T13:53:00.243Z,0.28
2023-04-08T13:54:40.013Z,0.3
2023-04-08T13:56:19.816Z,0.28
2023-04-08T13:57:59.575Z,0.26
2023-04-08T13:59:39.316Z,0.29
2023-04-08T14:01:19.097Z,0.26
2023-04-08T14:02:58.876Z,0.28
2023-04-08T14:04:38.744Z,0.27
2023-04-08T14:06:18.404Z,0.27
2023-04-08T14:07:58.206Z,0.27
2023-04-08T14:09:37.958Z,0.26
2023-04-08T14:11:17.706Z,0.28
2023-04-08T14:12:57.504Z,0.25
2023-04-08T14:14:37.275Z,0.26
2023-04-08T14:16:17.056Z,0.28
2023-04-08T14:17:56.806Z,0.24
2023-04-08T14:19:36.575Z,0.28
2023-04-08T14:21:16.346Z,0.28
2023-04-08T14:22:56.120Z,0.28
2023-04-08T14:24:35.872Z,0.26
2023-04-08T14:26:15.648Z,0.26
2023-04-08T14:27:55.450Z,0.27
2023-04-08T14:29:35.182Z,0.26
2023-04-08T14:31:14.955Z,0.27
2023-04-08T14:32:54.735Z,0.26
2023-04-08T14:34:34.508Z,0.27
2023-04-08T14:36:14.275Z,0.22
2023-04-08T14:37:54.040Z,0.25
2023-04-08T14:39:33.834Z,0.26
2023-04-08T14:41:13.588Z,0.26
2023-04-08T14:42:53.412Z,0.27
2023-04-08T14:44:33.112Z,0.25
2023-04-08T14:46:12.885Z,0.27
2023-04-08T14:47:52.721Z,0.24
2023-04-08T14:49:32.443Z,0.25
2023-04-08T14:51:12.212Z,0.25
2023-04-08T14:52:51.994Z,0.24
2023-04-08T14:54:31.748Z,0.26
2023-04-08T14:56:11.522Z,0.27
2023-04-08T14:57:51.284Z,0.26
2023-04-08T14:59:31.052Z,0.24
2023-04-08T15:01:10.821Z,0.22
2023-04-08T15:02:50.653Z,0.34
2023-04-08T15:04:30.359Z,0.23
2023-04-08T15:06:10.141Z,0.26
2023-04-08T15:07:49.919Z,0.21
2023-04-08T15:09:29.670Z,0.26
2023-04-08T15:11:09.437Z,0.25
2023-04-08T15:12:49.203Z,0.28
2023-04-08T15:14:28.984Z,0.24
2023-04-08T15:16:08.792Z,0.26
2023-04-08T15:17:48.529Z,0.23
2023-04-08T15:19:28.347Z,0.25
2023-04-08T15:21:08.072Z,0.25
2023-04-08T15:22:47.890Z,0.23
2023-04-08T15:24:27.610Z,0.25
2023-04-08T15:26:07.376Z,0.26
2023-04-08T15:27:47.173Z,0.25
2023-04-08T15:29:26.917Z,0.23
2023-04-08T15:31:06.722Z,0.26
2023-04-08T15:32:46.464Z,0.25
2023-04-08T15:34:26.230Z,0.25
2023-04-08T15:36:05.993Z,0.26
2023-04-08T15:37:45.771Z,0.26
2023-04-08T15:39:25.553Z,0.25
2023-04-08T15:41:05.351Z,0.25
2023-04-08T15:42:45.115Z,0.24
2023-04-08T15:44:24.852Z,0.23
2023-04-08T15:46:04.640Z,0.24
2023-04-08T15:47:44.375Z,0.21
2023-04-08T15:49:24.159Z,0.21
2023-04-08T15:51:03.938Z,0.25
2023-04-08T15:52:43.705Z,0.23
2023-04-08T15:54:23.474Z,0.25
2023-04-08T15:56:03.246Z,0.22
2023-04-08T15:57:43.025Z,0.23
2023-04-08T15:59:22.761Z,0.25
2023-04-08T16:01:02.548Z,0.25
2023-04-08T16:02:42.329Z,0.25
2023-04-08T16:04:22.087Z,0.26
2023-04-08T16:06:01.933Z,0.26
2023-04-08T16:07:41.635Z,0.23
2023-04-08T16:09:21.442Z,0.23
2023-04-08T16:11:01.181Z,0.23
2023-04-08T16:12:40.963Z,0.24
2023-04-08T16:14:20.724Z,0.23
2023-04-08T16:16:00.477Z,0.26
2023-04-08T16:17:40.258Z,0.24
2023-04-08T16:19:20.104Z,0.24
2023-04-08T16:20:59.939Z,0.25
2023-04-08T16:22:39.856Z,0.23
2023-04-08T16:24:19.505Z,0.24
2023-04-08T16:25:59.141Z,0.25
2023-04-08T16:27:38.944Z,0.25
2023-04-08T16:29:18.729Z,0.23
2023-04-08T16:30:58.458Z,0.26
2023-04-08T16:32:38.392Z,0.22
2023-04-08T16:34:18.075Z,0.24
2023-04-08T16:35:57.802Z,0.24
2023-04-08T16:37:37.557Z,0.25
2023-04-08T16:39:17.398Z,0.25
2023-04-08T16:40:57.219Z,0.22
2023-04-08T16:42:36.822Z,0.25
2023-04-08T16:44:16.638Z,0.25
2023-04-08T16:45:56.365Z,0.24
2023-04-08T16:47:36.278Z,0.23
2023-04-08T16:49:16.031Z,0.24
2023-04-08T16:50:55.663Z,0.21
2023-04-08T16:52:35.445Z,0.24
2023-04-08T16:54:15.241Z,0.22
2023-04-08T16:55:55.131Z,0.23
2023-04-08T16:57:34.910Z,0.25
2023-04-08T16:59:14.625Z,0.26
2023-04-08T17:00:54.368Z,0.21
2023-04-08T17:02:34.209Z,0.24
2023-04-08T17:04:13.970Z,0.22
2023-04-08T17:05:53.715Z,0.22
2023-04-08T17:07:33.521Z,0.24
2023-04-08T17:09:13.213Z,0.24
2023-04-08T17:10:52.960Z,0.23
2023-04-08T17:12:32.701Z,0.23
2023-04-08T17:14:12.459Z,0.25
2023-04-08T17:15:52.229Z,0.22
2023-04-08T17:17:32.010Z,0.24
2023-04-08T17:19:11.751Z,0.24
2023-04-08T17:20:51.550Z,0.22
2023-04-08T17:22:31.301Z,0.21
2023-04-08T17:24:11.094Z,0.26
2023-04-08T17:25:50.844Z,0.21
2023-04-08T17:27:30.611Z,0.22
2023-04-08T17:29:10.405Z,0.22
2023-04-08T17:30:50.159Z,0.24
2023-04-08T17:32:29.916Z,0.24
2023-04-08T17:34:09.713Z,0.19
2023-04-08T17:35:49.469Z,0.11
2023-04-08T17:37:29.235Z,0.09
2023-04-08T17:39:09.016Z,0.07
2023-04-08T17:40:48.782Z,0.06
2023-04-08T17:42:28.553Z,0.02
2023-04-08T17:44:08.315Z,0.03
2023-04-08T17:45:48.088Z,0
2023-04-08T17:47:27.850Z,0
2023-04-08T17:49:07.629Z,0
2023-04-08T17:50:47.405Z,0
2023-04-08T17:52:27.158Z,0
2023-04-08T17:54:06.931Z,0
2023-04-08T17:55:46.705Z,0
2023-04-08T17:57:26.447Z,0
2023-04-08T17:59:06.231Z,0
2023-04-08T18:00:45.987Z,0
2023-04-08T18:02:25.766Z,0
2023-04-08T18:04:05.517Z,0
2023-04-08T18:05:45.291Z,0
2023-04-08T18:07:25.048Z,0
2023-04-08T18:09:04.822Z,0
2023-04-08T18:10:44.594Z,0
2023-04-08T18:12:24.381Z,0
2023-04-08T18:14:04.123Z,0
2023-04-08T18:15:43.893Z,0
2023-04-08T18:17:23.698Z,0
2023-04-08T18:19:03.433Z,0
2023-04-08T18:20:43.194Z,0
2023-04-08T18:22:22.955Z,0
2023-04-08T18:24:02.798Z,0
2023-04-08T18:25:42.498Z,0
2023-04-08T18:27:22.268Z,0
2023-04-08T18:29:02.031Z,0
2023-04-08T18:30:41.793Z,0
2023-04-08T18:32:21.565Z,0
2023-04-08T18:34:01.334Z,0
2023-04-08T18:35:41.111Z,0
2023-04-08T18:37:20.875Z,0
2023-04-08T18:39:00.638Z,0
2023-04-08T18:40:40.419Z,0
2023-04-08T18:42:20.181Z,0
2023-04-08T18:43:59.929Z,0
2023-04-08T18:45:39.722Z,0
2023-04-08T18:47:19.484Z,0
2023-04-08T18:48:59.245Z,0
2023-04-08T18:50:39.050Z,0
2023-04-08T18:52:18.771Z,0
2023-04-08T18:53:58.562Z,0
2023-04-08T18:55:38.314Z,0
2023-04-08T18:57:18.073Z,0
2023-04-08T18:58:57.853Z,0
2023-04-08T19:00:37.610Z,0
2023-04-08T19:02:17.388Z,0
2023-04-08T19:03:57.165Z,0
2023-04-08T19:05:36.916Z,0
2023-04-08T19:07:16.685Z,0
2023-04-08T19:08:56.459Z,0
2023-04-08T19:10:36.219Z,0
2023-04-08T19:12:15.984Z,0
2023-04-08T19:13:55.755Z,0
2023-04-08T19:15:35.524Z,0
2023-04-08T19:17:15.285Z,0
2023-04-08T19:18:55.046Z,0
2023-04-08T19:20:34.836Z,0
2023-04-08T19:22:14.588Z,0
2023-04-08T19:23:54.356Z,0
2023-04-08T19:25:34.117Z,0
2023-04-08T19:27:13.893Z,0
2023-04-08T19:28:53.650Z,0
2023-04-08T19:30:33.437Z,0
2023-04-08T19:32:13.198Z,0
2023-04-08T19:33:52.972Z,0
2023-04-08T19:35:32.765Z,0
2023-04-08T19:37:12.510Z,0
2023-04-08T19:38:52.263Z,0
2023-04-08T19:40:32.032Z,0
2023-04-08T19:42:11.796Z,0
2023-04-08T19:43:51.569Z,0
2023-04-08T19:45:31.345Z,0
2023-04-08T19:47:11.098Z,0
2023-04-08T19:48:50.878Z,0
2023-04-08T19:50:30.626Z,0
2023-04-08T19:52:10.402Z,0
2023-04-08T19:53:50.149Z,0
2023-04-08T19:55:29.948Z,0
2023-04-08T19:57:09.688Z,0
2023-04-08T19:58:49.468Z,0
2023-04-08T20:00:29.239Z,0
2023-04-08T20:02:09.013Z,0
2023-04-08T20:03:48.784Z,0
2023-04-08T20:05:28.536Z,0
2023-04-08T20:07:08.321Z,0
2023-04-08T20:08:48.066Z,0
2023-04-08T20:10:27.841Z,0
2023-04-08T20:12:07.593Z,0
2023-04-08T20:13:47.374Z,0
2023-04-08T20:15:27.142Z,0
2023-04-08T20:17:06.914Z,0
2023-04-08T20:18:46.674Z,0
2023-04-08T20:20:26.451Z,0
2023-04-08T20:22:06.221Z,0
2023-04-08T20:23:45.970Z,0
2023-04-08T20:25:25.761Z,0
2023-04-08T20:27:05.519Z,0
2023-04-08T20:28:45.288Z,0
2023-04-08T20:30:25.053Z,0
2023-04-08T20:32:04.819Z,0
2023-04-08T20:33:44.617Z,0
2023-04-08T20:35:24.348Z,0
2023-04-08T20:37:04.143Z,0
2023-04-08T20:38:43.893Z,0
2023-04-08T20:40:23.665Z,0
2023-04-08T20:42:03.427Z,0
2023-04-08T20:43:43.185Z,0
2023-04-08T20:45:22.962Z,0
2023-04-08T20:47:02.735Z,0
2023-04-08T20:48:42.498Z,0
2023-04-08T20:50:22.263Z,0
2023-04-08T20:52:02.035Z,0
2023-04-08T20:53:41.790Z,0
2023-04-08T20:55:21.552Z,0
2023-04-08T20:57:01.342Z,0
2023-04-08T20:58:41.102Z,0
2023-04-08T21:00:20.871Z,0
2023-04-08T21:02:00.627Z,0
2023-04-08T21:03:40.409Z,0
2023-04-08T21:05:20.179Z,0
2023-04-08T21:06:59.933Z,0
2023-04-08T21:08:39.699Z,0
2023-04-08T21:10:19.469Z,0
2023-04-08T21:11:59.233Z,0
2023-04-08T21:13:39.006Z,0
2023-04-08T21:15:18.768Z,0
2023-04-08T21:16:58.549Z,0
2023-04-08T21:18:38.312Z,0
2023-04-08T21:20:18.068Z,0
2023-04-08T21:21:57.885Z,0
2023-04-08T21:23:37.602Z,0
2023-04-08T21:25:17.466Z,0
2023-04-08T21:26:57.138Z,0
2023-04-08T21:28:36.893Z,0
2023-04-08T21:30:16.679Z,0
2023-04-08T21:31:56.432Z,0
2023-04-08T21:33:36.221Z,0
2023-04-08T21:35:15.974Z,0
2023-04-08T21:36:55.741Z,0
2023-04-08T21:38:35.519Z,0
2023-04-08T21:40:15.268Z,0
2023-04-08T21:41:55.046Z,0
2023-04-08T21:43:34.821Z,0
2023-04-08T21:45:14.570Z,0
2023-04-08T21:46:54.338Z,0
2023-04-08T21:48:34.105Z,0
2023-04-08T21:50:13.887Z,0
2023-04-08T21:51:53.647Z,0
2023-04-08T21:53:33.430Z,0
2023-04-08T21:55:13.179Z,0
2023-04-08T21:56:52.948Z,0
2023-04-08T21:58:32.758Z,0
2023-04-08T22:00:12.488Z,0
2023-04-08T22:01:52.270Z,0
2023-04-08T22:03:32.028Z,0
2023-04-08T22:05:11.798Z,0
2023-04-08T22:06:51.555Z,0
2023-04-08T22:08:31.331Z,0
2023-04-08T22:10:11.097Z,0
2023-04-08T22:11:50.868Z,0
2023-04-08T22:13:30.626Z,0
2023-04-08T22:15:10.389Z,0
2023-04-08T22:16:50.164Z,0
2023-04-08T22:18:29.931Z,0
2023-04-08T22:20:09.686Z,0
2023-04-08T22:21:49.459Z,0
2023-04-08T22:23:29.235Z,0
2023-04-08T22:25:09.015Z,0
2023-04-08T22:26:48.765Z,0
2023-04-08T22:28:28.532Z,0
2023-04-08T22:30:08.296Z,0
2023-04-08T22:31:48.062Z,0
2023-04-08T22:33:27.828Z,0
2023-04-08T22:35:07.602Z,0
2023-04-08T22:36:47.364Z,0
2023-04-08T22:38:27.129Z,0
2023-04-08T22:40:06.914Z,0
2023-04-08T22:41:46.670Z,0
2023-04-08T22:43:26.437Z,0
2023-04-08T22:45:06.201Z,0
2023-04-08T22:46:45.973Z,0
2023-04-08T22:48:25.750Z,0
2023-04-08T22:50:05.525Z,0
2023-04-08T22:51:45.275Z,0
2023-04-08T22:53:25.080Z,0
2023-04-08T22:55:04.817Z,0
2023-04-08T22:56:44.579Z,0
2023-04-08T22:58:24.339Z,0
2023-04-08T23:00:04.115Z,0
2023-04-08T23:01:43.895Z,0
2023-04-08T23:03:23.665Z,0
2023-04-08T23:05:03.408Z,0
2023-04-08T23:06:43.203Z,0
2023-04-08T23:08:22.938Z,0
2023-04-08T23:10:02.717Z,0
2023-04-08T23:11:42.477Z,0
2023-04-08T23:13:22.251Z,0
2023-04-08T23:15:02.123Z,0